sim
Sign-in with your pilot id or email,
or register
Callsign
Passwort

Schedule Details

Flight Number: OEF9182
Departure: Chicago O'Hare International Airport (KORD) at 05:20
Arrival: Munich Airport (EDDM) at 13:15

Weather Information
Getting current METAR information for KORD 190851Z 35004KT 10SM FEW043 09/04 A3036 RMK AO2 SLP283 T00890044 52000 $
Getting current METAR information for EDDM 190920Z 08007KT 040V110 CAVOK 16/09 Q1020 NOSIG

Schedule Frequency

Route Map